Time;durP1;ratioP1;P1;durP2;ratioP2;P2;SDS_P1;SDS_P2;PMS_P1;PMS_P2;Temp;Humidity;BMP_temperature;BMP_pressure;BME280_temperature;BME280_humidity;BME280_pressure;Samples;Min_cycle;Max_cycle;Signal;HPM_P1;HPM_P2
2021/04/22 00:00:18;;;;;;;4.57;2.90;;;20.10;59.80;;;;;;4951196;28;20498;-63
2021/04/22 00:02:47;;;;;;;3.40;2.60;;;20.20;60.90;;;;;;4965137;28;20446;-63
2021/04/22 00:05:30;;;;;;;8.35;3.88;;;20.30;62.40;;;;;;4973141;28;20031;-65
2021/04/22 00:08:01;;;;;;;7.07;3.53;;;20.40;58.50;;;;;;4972610;28;20031;-65
2021/04/22 00:10:36;;;;;;;5.40;3.00;;;20.40;60.10;;;;;;4972403;28;20057;-67
2021/04/22 00:13:04;;;;;;;7.55;3.83;;;20.40;59.00;;;;;;4968460;28;20039;-65
2021/04/22 00:15:32;;;;;;;7.63;4.13;;;20.50;58.90;;;;;;4972521;28;20015;-68
2021/04/22 00:18:00;;;;;;;6.38;3.30;;;20.50;57.70;;;;;;4955272;28;20030;-65
2021/04/22 00:20:28;;;;;;;11.77;5.18;;;20.60;60.40;;;;;;4970995;28;20057;-65
2021/04/22 00:22:56;;;;;;;4.03;2.55;;;20.70;59.70;;;;;;4967158;28;20456;-59
2021/04/22 00:25:23;;;;;;;5.93;2.83;;;20.70;61.00;;;;;;4972135;28;20030;-65
2021/04/22 00:27:51;;;;;;;5.07;3.53;;;20.80;60.90;;;;;;4972964;28;20500;-59
2021/04/22 00:30:19;;;;;;;4.05;2.38;;;20.90;57.90;;;;;;4971437;28;20034;-63
2021/04/22 00:32:47;;;;;;;7.78;4.25;;;20.90;60.60;;;;;;4967150;28;20174;-63
2021/04/22 00:35:15;;;;;;;5.78;4.50;;;21.00;58.60;;;;;;4954741;28;20027;-63
2021/04/22 00:37:42;;;;;;;8.95;6.15;;;21.00;59.10;;;;;;4971824;28;20446;-66
2021/04/22 00:40:14;;;;;;;6.00;4.13;;;21.10;56.00;;;;;;4970185;28;20073;-56
2021/04/22 00:42:42;;;;;;;4.55;3.33;;;21.10;58.10;;;;;;4966540;28;20031;-64
2021/04/22 00:45:10;;;;;;;5.72;3.13;;;21.20;56.50;;;;;;4967311;28;20048;-62
2021/04/22 00:47:39;;;;;;;8.07;4.13;;;21.20;58.40;;;;;;4971673;28;20077;-64
2021/04/22 00:50:22;;;;;;;5.78;3.30;;;21.30;56.40;;;;;;4951056;29;20089;-64
2021/04/22 00:52:52;;;;;;;5.18;3.25;;;21.30;57.80;;;;;;4964509;28;20027;-68
2021/04/22 00:55:20;;;;;;;7.65;3.55;;;21.40;58.90;;;;;;4970178;28;20038;-64
2021/04/22 00:57:48;;;;;;;4.10;2.85;;;21.40;55.70;;;;;;4971680;28;20101;-64
2021/04/22 01:00:18;;;;;;;5.55;4.47;;;21.40;59.40;;;;;;4971066;28;20106;-64
2021/04/22 01:02:47;;;;;;;8.38;3.65;;;21.40;58.80;;;;;;4966500;28;20067;-67
2021/04/22 01:05:23;;;;;;;9.30;6.05;;;21.50;59.20;;;;;;4971922;28;20031;-65
2021/04/22 01:07:50;;;;;;;10.10;5.05;;;21.60;55.40;;;;;;4971177;28;20453;-66
2021/04/22 01:10:20;;;;;;;9.68;5.70;;;21.60;58.50;;;;;;4971320;28;20397;-64
2021/04/22 01:12:48;;;;;;;6.40;4.25;;;21.70;53.60;;;;;;4948799;28;20035;-63
2021/04/22 01:15:24;;;;;;;6.78;4.18;;;21.80;57.20;;;;;;4972091;28;20098;-67
2021/04/22 01:17:52;;;;;;;9.55;6.72;;;21.90;53.80;;;;;;4971306;28;20034;-65
2021/04/22 01:20:29;;;;;;;8.70;5.88;;;21.90;53.30;;;;;;4971400;28;20157;-62
2021/04/22 01:22:59;;;;;;;6.32;4.40;;;22.00;53.90;;;;;;4965843;28;20084;-65
2021/04/22 01:25:35;;;;;;;6.85;5.15;;;22.00;57.00;;;;;;4971865;28;20477;-70
2021/04/22 01:28:05;;;;;;;8.32;5.40;;;22.10;56.90;;;;;;4972421;28;20450;-64
2021/04/22 01:30:36;;;;;;;11.38;6.68;;;22.20;53.70;;;;;;4970772;28;20054;-64
2021/04/22 01:33:04;;;;;;;11.38;5.68;;;22.20;52.20;;;;;;4966961;28;20427;-65
2021/04/22 01:35:35;;;;;;;11.65;5.70;;;22.30;54.90;;;;;;4972813;28;20035;-66
2021/04/22 01:38:04;;;;;;;7.53;5.73;;;22.30;54.50;;;;;;4972011;28;20042;-63
2021/04/22 01:40:32;;;;;;;8.90;5.88;;;22.30;54.30;;;;;;4970988;28;20135;-65
2021/04/22 01:42:59;;;;;;;9.05;5.93;;;22.40;53.40;;;;;;4966420;28;20033;-63
2021/04/22 01:45:27;;;;;;;10.75;5.78;;;22.40;51.80;;;;;;4971548;28;20074;-62
2021/04/22 01:47:55;;;;;;;11.05;5.95;;;22.40;53.20;;;;;;4968253;28;20027;-66
2021/04/22 01:50:26;;;;;;;7.20;5.28;;;22.40;52.70;;;;;;4967572;28;20047;-70
2021/04/22 01:52:55;;;;;;;10.43;6.10;;;22.40;53.60;;;;;;4963466;28;20050;-69
2021/04/22 01:55:31;;;;;;;9.18;6.15;;;22.50;51.80;;;;;;4969861;28;20093;-64
2021/04/22 01:57:59;;;;;;;8.38;5.05;;;22.60;51.30;;;;;;4971096;28;20030;-67
2021/04/22 02:00:49;;;;;;;9.23;5.28;;;22.70;50.00;;;;;;4971198;28;20036;-64
2021/04/22 02:03:16;;;;;;;9.73;6.45;;;22.60;53.30;;;;;;4964941;28;20027;-66
2021/04/22 02:05:48;;;;;;;7.07;4.97;;;22.70;50.20;;;;;;4972446;28;20038;-65
2021/04/22 02:08:16;;;;;;;9.15;5.90;;;22.70;50.50;;;;;;4974416;28;20042;-64
2021/04/22 02:10:44;;;;;;;7.45;5.45;;;22.70;51.10;;;;;;4974755;28;20117;-67
2021/04/22 02:13:14;;;;;;;11.93;5.78;;;22.70;53.40;;;;;;4969794;28;20134;-62
2021/04/22 02:15:42;;;;;;;8.65;5.43;;;22.70;50.10;;;;;;4974282;28;20095;-69
2021/04/22 02:18:09;;;;;;;9.20;5.30;;;22.70;52.10;;;;;;4974812;28;20426;-64
2021/04/22 02:20:37;;;;;;;11.82;6.43;;;22.80;51.90;;;;;;4972586;28;20023;-62
2021/04/22 02:23:07;;;;;;;7.97;5.70;;;22.80;49.90;;;;;;4968995;28;20034;-63
2021/04/22 02:25:35;;;;;;;13.15;5.43;;;22.80;51.80;;;;;;4974270;28;20027;-63
2021/04/22 02:28:02;;;;;;;11.75;6.03;;;22.90;50.60;;;;;;4957284;28;20380;-64
2021/04/22 02:30:33;;;;;;;8.05;5.15;;;23.00;47.70;;;;;;4973476;28;20058;-64
2021/04/22 02:33:02;;;;;;;9.82;5.68;;;23.00;50.50;;;;;;4967941;28;20062;-63
2021/04/22 02:35:33;;;;;;;8.90;4.90;;;23.10;47.20;;;;;;4971561;28;20031;-65
2021/04/22 02:38:02;;;;;;;8.77;4.70;;;23.20;48.30;;;;;;4971908;28;20027;-61
2021/04/22 02:40:32;;;;;;;11.90;5.93;;;23.30;47.60;;;;;;4971034;28;20023;-65
2021/04/22 02:43:01;;;;;;;8.82;4.80;;;23.40;45.80;;;;;;4969152;28;20109;-65
2021/04/22 02:45:31;;;;;;;10.25;4.82;;;23.40;46.00;;;;;;4973579;28;20043;-64
2021/04/22 02:47:59;;;;;;;7.22;4.60;;;23.50;48.40;;;;;;4973449;28;20034;-65
2021/04/22 02:50:33;;;;;;;8.90;4.93;;;23.60;51.20;;;;;;4972863;28;20421;-65
2021/04/22 02:53:01;;;;;;;11.88;5.53;;;23.60;47.00;;;;;;4968868;28;20131;-64
2021/04/22 02:55:29;;;;;;;11.80;6.28;;;23.70;48.40;;;;;;4972448;28;20035;-66
2021/04/22 02:57:56;;;;;;;11.45;5.68;;;23.70;48.50;;;;;;4973915;28;20390;-68
2021/04/22 03:00:25;;;;;;;12.77;5.88;;;23.80;47.90;;;;;;4972814;28;20034;-67
2021/04/22 03:02:52;;;;;;;13.95;4.78;;;23.90;47.60;;;;;;4968932;28;20069;-63
2021/04/22 03:05:20;;;;;;;14.60;6.05;;;24.00;45.50;;;;;;4973749;28;20042;-66
2021/04/22 03:07:47;;;;;;;13.20;5.53;;;24.10;47.90;;;;;;4974231;28;20031;-67
2021/04/22 03:10:17;;;;;;;17.98;6.40;;;24.20;46.20;;;;;;4972930;28;20038;-62
2021/04/22 03:12:45;;;;;;;15.05;6.47;;;24.10;49.40;;;;;;4968892;28;20031;-65
2021/04/22 03:15:13;;;;;;;21.50;6.00;;;24.20;48.40;;;;;;4973749;28;20504;-66
2021/04/22 03:17:41;;;;;;;13.90;7.43;;;24.30;45.50;;;;;;4972871;28;20039;-67
2021/04/22 03:20:09;;;;;;;17.08;6.57;;;24.30;45.40;;;;;;4972590;28;20031;-70
2021/04/22 03:22:38;;;;;;;19.80;8.15;;;24.30;47.90;;;;;;4969532;28;20034;-67
2021/04/22 03:25:08;;;;;;;19.42;8.07;;;24.30;49.30;;;;;;4972676;28;20038;-67
2021/04/22 03:27:35;;;;;;;15.43;7.20;;;24.30;49.60;;;;;;4973521;28;20102;-64
2021/04/22 03:30:06;;;;;;;21.67;7.53;;;24.30;48.50;;;;;;4973714;28;20137;-68
2021/04/22 03:32:36;;;;;;;14.10;5.80;;;24.20;49.60;;;;;;4968676;28;20438;-65
2021/04/22 03:35:05;;;;;;;15.15;6.22;;;24.10;47.60;;;;;;4972902;28;20037;-63
2021/04/22 03:37:33;;;;;;;15.43;7.47;;;24.10;45.90;;;;;;4972422;28;20102;-65
2021/04/22 03:40:01;;;;;;;14.95;6.30;;;24.00;47.30;;;;;;4972531;28;20117;-62
2021/04/22 03:42:28;;;;;;;15.77;7.20;;;24.00;47.70;;;;;;4969468;28;20339;-64
2021/04/22 03:44:56;;;;;;;17.08;6.32;;;24.00;47.20;;;;;;4953427;28;20121;-63
2021/04/22 03:47:23;;;;;;;19.83;7.57;;;23.90;45.30;;;;;;4972991;28;20129;-64
2021/04/22 03:49:50;;;;;;;13.98;7.00;;;23.90;48.00;;;;;;4972808;28;20051;-66
2021/04/22 03:52:19;;;;;;;18.50;9.20;;;23.80;50.70;;;;;;4971339;28;20102;-66
2021/04/22 03:54:47;;;;;;;14.48;6.63;;;23.80;49.20;;;;;;4952690;28;20117;-65
2021/04/22 03:57:15;;;;;;;16.95;7.15;;;23.70;50.60;;;;;;4972232;28;20027;-67
2021/04/22 03:59:42;;;;;;;18.33;6.93;;;23.70;49.80;;;;;;4973739;28;20043;-62
2021/04/22 04:02:10;;;;;;;19.23;7.82;;;23.70;49.10;;;;;;4971716;28;20031;-63
2021/04/22 04:04:37;;;;;;;20.30;7.63;;;23.80;52.00;;;;;;4967813;28;20481;-64
2021/04/22 04:07:04;;;;;;;25.63;9.88;;;23.90;51.10;;;;;;4972013;28;20481;-61
2021/04/22 04:09:32;;;;;;;30.75;9.82;;;24.10;50.80;;;;;;4973278;28;20073;-61
2021/04/22 04:11:59;;;;;;;31.88;10.82;;;24.20;47.40;;;;;;4971940;28;20481;-67
2021/04/22 04:14:27;;;;;;;21.75;9.77;;;24.30;49.60;;;;;;4965915;28;20047;-66
2021/04/22 04:16:54;;;;;;;32.67;11.70;;;24.50;49.00;;;;;;4972685;28;20030;-66
2021/04/22 04:19:21;;;;;;;29.88;9.70;;;24.50;46.90;;;;;;4972277;28;20050;-65
2021/04/22 04:21:48;;;;;;;29.92;10.75;;;24.70;49.50;;;;;;4971707;28;20019;-65
2021/04/22 04:24:16;;;;;;;30.55;9.93;;;24.70;48.70;;;;;;4958503;28;20505;-62
2021/04/22 04:26:43;;;;;;;32.03;11.07;;;24.90;46.50;;;;;;4971799;28;20034;-63
2021/04/22 04:29:11;;;;;;;29.15;9.25;;;24.90;48.50;;;;;;4972352;28;20082;-65
2021/04/22 04:31:38;;;;;;;25.05;9.93;;;25.00;44.90;;;;;;4972091;28;20385;-67
2021/04/22 04:34:06;;;;;;;26.13;9.25;;;25.00;44.70;;;;;;4964833;28;20380;-67
2021/04/22 04:36:33;;;;;;;30.17;11.15;;;25.10;46.30;;;;;;4955234;28;20033;-69
2021/04/22 04:39:01;;;;;;;23.80;9.43;;;25.10;48.40;;;;;;4971369;28;20065;-68
2021/04/22 04:41:28;;;;;;;29.63;10.52;;;25.20;48.40;;;;;;4953323;28;20023;-65
2021/04/22 04:43:55;;;;;;;30.17;12.38;;;25.20;49.70;;;;;;4964036;28;20089;-64
2021/04/22 04:46:24;;;;;;;19.85;9.10;;;25.20;49.60;;;;;;4970765;28;20141;-68
2021/04/22 04:48:51;;;;;;;29.30;10.80;;;25.30;46.10;;;;;;4969075;28;20039;-63
2021/04/22 04:51:18;;;;;;;26.75;11.52;;;25.20;49.10;;;;;;4971300;28;20023;-63
2021/04/22 04:53:47;;;;;;;22.02;8.48;;;25.20;49.00;;;;;;4964411;28;20039;-65
2021/04/22 04:56:18;;;;;;;28.45;9.45;;;25.30;45.90;;;;;;4970871;28;20061;-68
2021/04/22 04:58:47;;;;;;;26.20;9.57;;;25.30;45.20;;;;;;4969682;28;20047;-65
2021/04/22 05:01:15;;;;;;;31.05;9.98;;;25.30;47.40;;;;;;4970808;28;20049;-63
2021/04/22 05:03:42;;;;;;;29.35;10.07;;;25.40;45.80;;;;;;4964174;28;20046;-62
2021/04/22 05:06:10;;;;;;;19.85;8.82;;;25.40;47.20;;;;;;4969792;28;20119;-63
2021/04/22 05:08:37;;;;;;;21.48;9.18;;;25.40;45.20;;;;;;4971602;28;20082;-67
2021/04/22 05:11:05;;;;;;;27.52;8.68;;;25.40;44.70;;;;;;4971179;28;20027;-66
2021/04/22 05:13:33;;;;;;;26.17;8.18;;;25.40;45.50;;;;;;4965238;28;20023;-64
2021/04/22 05:16:00;;;;;;;19.98;8.32;;;25.50;47.60;;;;;;4971225;28;20019;-65
2021/04/22 05:18:28;;;;;;;25.42;8.32;;;25.50;47.00;;;;;;4971493;28;20031;-65
2021/04/22 05:20:56;;;;;;;21.58;7.43;;;25.50;46.20;;;;;;4971833;28;20076;-68
2021/04/22 05:23:23;;;;;;;24.88;8.63;;;25.50;47.70;;;;;;4965055;28;20478;-66
2021/04/22 05:25:54;;;;;;;23.23;8.45;;;25.50;48.30;;;;;;4973059;28;20082;-65
2021/04/22 05:28:22;;;;;;;19.00;7.07;;;25.40;47.90;;;;;;4972732;28;20376;-66
2021/04/22 05:30:50;;;;;;;17.85;7.78;;;25.40;47.30;;;;;;4972063;28;20034;-69
2021/04/22 05:33:18;;;;;;;22.73;8.98;;;25.40;46.60;;;;;;4972050;28;20027;-68
2021/04/22 05:35:46;;;;;;;17.83;7.88;;;25.30;48.50;;;;;;4973361;28;20022;-67
2021/04/22 05:38:13;;;;;;;16.50;7.75;;;25.30;46.50;;;;;;4973014;28;20371;-69
2021/04/22 05:40:41;;;;;;;23.05;9.13;;;25.20;46.50;;;;;;4974111;28;20355;-67
2021/04/22 05:43:08;;;;;;;24.48;8.23;;;25.20;49.30;;;;;;4977028;28;20030;-67
2021/04/22 05:45:37;;;;;;;15.45;6.97;;;25.20;49.00;;;;;;4976773;28;20405;-71
2021/04/22 05:48:05;;;;;;;21.17;8.00;;;25.20;46.50;;;;;;4977444;28;20039;-67
2021/04/22 05:50:33;;;;;;;21.23;7.97;;;25.20;48.10;;;;;;4975993;28;20055;-68
2021/04/22 05:53:01;;;;;;;15.98;6.60;;;25.20;47.80;;;;;;4958913;28;20029;-69
2021/04/22 05:55:28;;;;;;;15.77;7.45;;;25.10;47.10;;;;;;4976358;28;20031;-68
2021/04/22 05:58:00;;;;;;;20.33;7.50;;;25.10;48.70;;;;;;4976379;28;20102;-68
2021/04/22 06:00:30;;;;;;;17.98;6.53;;;25.10;48.80;;;;;;4975727;28;20042;-70
2021/04/22 06:02:58;;;;;;;17.15;7.00;;;25.10;45.70;;;;;;4975713;28;20034;-67
2021/04/22 06:05:29;;;;;;;16.95;7.10;;;24.90;45.70;;;;;;4948968;28;20027;-63
2021/04/22 06:07:56;;;;;;;15.75;6.65;;;24.90;45.90;;;;;;4973588;28;20146;-65
2021/04/22 06:10:24;;;;;;;15.45;6.57;;;24.80;48.90;;;;;;4973640;28;20057;-64
2021/04/22 06:12:51;;;;;;;17.08;7.25;;;24.70;47.40;;;;;;4973048;28;20085;-64
2021/04/22 06:15:21;;;;;;;20.13;7.28;;;24.60;47.30;;;;;;4973756;28;20103;-65
2021/04/22 06:17:49;;;;;;;19.67;6.35;;;24.50;47.50;;;;;;4974012;28;20050;-65
2021/04/22 06:20:22;;;;;;;15.90;6.80;;;24.40;46.10;;;;;;4973675;28;20109;-66
2021/04/22 06:22:51;;;;;;;18.77;6.70;;;24.30;48.80;;;;;;4971163;28;20031;-63
2021/04/22 06:25:22;;;;;;;19.77;6.70;;;24.20;48.40;;;;;;4973263;28;20034;-61
2021/04/22 06:27:50;;;;;;;;;;;24.10;47.80;;;;;;4974240;28;20593;-63
2021/04/22 06:30:18;;;;;;;12.82;6.05;;;24.00;48.20;;;;;;4958786;28;19910;-64
2021/04/22 06:32:46;;;;;;;16.33;5.95;;;23.90;49.20;;;;;;4972788;28;20051;-65
2021/04/22 06:35:14;;;;;;;16.52;7.72;;;23.80;48.70;;;;;;4972843;28;20027;-68
2021/04/22 06:37:43;;;;;;;21.45;8.18;;;23.60;47.60;;;;;;4974191;28;20639;-68
2021/04/22 06:40:20;;;;;;;16.98;8.15;;;23.60;48.00;;;;;;4973664;28;20066;-67
2021/04/22 06:42:47;;;;;;;14.32;7.50;;;23.40;50.30;;;;;;4966815;28;20096;-64
2021/04/22 06:45:16;;;;;;;16.58;7.95;;;23.30;48.60;;;;;;4970344;28;20054;-64
2021/04/22 06:47:46;;;;;;;20.35;8.32;;;23.10;48.50;;;;;;4973710;28;20031;-65
2021/04/22 06:50:17;;;;;;;17.05;8.35;;;23.00;49.60;;;;;;4973536;28;20053;-66
2021/04/22 06:52:44;;;;;;;17.85;8.35;;;22.90;49.50;;;;;;4968407;28;20027;-67
2021/04/22 06:55:24;;;;;;;18.10;8.93;;;22.80;50.00;;;;;;4955516;28;20029;-66
2021/04/22 06:57:51;;;;;;;18.98;8.38;;;22.70;51.50;;;;;;4973940;28;20481;-67
2021/04/22 07:00:21;;;;;;;12.10;7.45;;;22.60;50.50;;;;;;4971587;28;20043;-66
2021/04/22 07:02:50;;;;;;;15.80;8.82;;;22.50;52.00;;;;;;4949222;28;20102;-66
2021/04/22 07:05:19;;;;;;;16.42;9.65;;;22.40;51.60;;;;;;4972125;28;20394;-63
2021/04/22 07:07:47;;;;;;;15.05;8.90;;;22.30;52.70;;;;;;4973357;28;20023;-65
2021/04/22 07:10:15;;;;;;;16.15;9.73;;;22.20;51.70;;;;;;4972899;28;20042;-62
2021/04/22 07:12:42;;;;;;;14.15;9.50;;;22.10;54.60;;;;;;4968043;28;20082;-66
2021/04/22 07:15:11;;;;;;;16.83;9.30;;;22.10;53.20;;;;;;4972565;28;20148;-68
2021/04/22 07:17:39;;;;;;;19.42;9.77;;;22.00;52.70;;;;;;4972640;28;20090;-66
2021/04/22 07:20:18;;;;;;;16.60;10.98;;;21.90;54.30;;;;;;4971559;28;20482;-64
2021/04/22 07:22:45;;;;;;;23.45;11.93;;;21.90;54.10;;;;;;4967499;28;20085;-64
2021/04/22 07:25:15;;;;;;;14.63;11.15;;;21.80;55.30;;;;;;4971771;28;20093;-64
2021/04/22 07:27:46;;;;;;;18.55;11.88;;;21.80;55.60;;;;;;4973504;28;20078;-61
2021/04/22 07:30:16;;;;;;;9.77;3.13;;;21.60;49.60;;;;;;4972745;28;20097;-62
2021/04/22 07:32:44;;;;;;;12.13;6.15;;;21.20;47.00;;;;;;4967144;28;20035;-65
2021/04/22 07:35:15;;;;;;;8.20;4.40;;;21.10;54.30;;;;;;4971773;28;20062;-69
2021/04/22 07:37:43;;;;;;;29.83;14.63;;;21.10;49.30;;;;;;4972227;28;20034;-60
2021/04/22 07:40:14;;;;;;;22.98;14.73;;;21.20;50.60;;;;;;4971974;28;20031;-61
2021/04/22 07:42:41;;;;;;;20.33;11.67;;;21.30;48.80;;;;;;4973687;28;20042;-62
2021/04/22 07:45:10;;;;;;;20.98;13.93;;;21.30;49.60;;;;;;4974344;28;20300;-58
2021/04/22 07:47:37;;;;;;;21.25;13.93;;;21.30;47.50;;;;;;4973250;28;20493;-63
2021/04/22 07:50:15;;;;;;;19.75;13.20;;;21.30;49.10;;;;;;4974325;28;20062;-63
2021/04/22 07:52:44;;;;;;;16.90;12.90;;;21.30;47.90;;;;;;4974421;28;20429;-63
2021/04/22 07:55:16;;;;;;;17.65;13.70;;;21.20;48.60;;;;;;4974062;28;20477;-66
2021/04/22 07:57:44;;;;;;;12.40;8.38;;;21.20;48.60;;;;;;4973854;28;20028;-61
2021/04/22 08:00:15;;;;;;;18.88;13.90;;;21.10;46.30;;;;;;4974053;28;20108;-65
2021/04/22 08:02:43;;;;;;;23.65;16.58;;;21.10;47.40;;;;;;4973691;28;20018;-61
2021/04/22 08:05:12;;;;;;;16.08;12.77;;;20.90;46.10;;;;;;4973348;28;20072;-61
2021/04/22 08:07:40;;;;;;;15.85;11.13;;;20.90;47.80;;;;;;4973863;28;20033;-62
2021/04/22 08:10:14;;;;;;;17.65;14.68;;;20.90;45.40;;;;;;4972634;28;20418;-65
2021/04/22 08:12:41;;;;;;;17.70;13.35;;;20.80;49.50;;;;;;4973797;28;20049;-59
2021/04/22 08:15:10;;;;;;;17.27;14.23;;;20.90;47.50;;;;;;4972601;28;20070;-63
2021/04/22 08:17:40;;;;;;;16.48;11.50;;;20.70;47.70;;;;;;4973617;28;20419;-62
2021/04/22 08:20:10;;;;;;;17.50;9.48;;;20.70;46.30;;;;;;4955830;28;20129;-62
2021/04/22 08:22:39;;;;;;;17.65;12.98;;;20.60;45.20;;;;;;4974225;28;20098;-63
2021/04/22 08:25:09;;;;;;;14.23;11.20;;;20.60;46.20;;;;;;4974021;28;20556;-64
2021/04/22 08:27:37;;;;;;;16.27;11.23;;;20.60;46.50;;;;;;4971470;28;20363;-63
2021/04/22 08:30:07;;;;;;;13.85;9.45;;;20.50;46.30;;;;;;4972487;28;20026;-60
2021/04/22 08:32:35;;;;;;;26.90;8.88;;;20.60;47.40;;;;;;4973841;28;20434;-61
2021/04/22 08:35:03;;;;;;;16.38;6.47;;;20.60;47.20;;;;;;4973392;28;20129;-67
2021/04/22 08:37:31;;;;;;;14.35;7.60;;;20.50;45.90;;;;;;4973310;28;20303;-63
2021/04/22 08:39:58;;;;;;;11.93;6.47;;;20.60;48.10;;;;;;4973481;28;20073;-63
2021/04/22 08:42:26;;;;;;;13.02;5.85;;;20.50;47.70;;;;;;4973310;28;20026;-62
2021/04/22 08:44:54;;;;;;;16.15;5.38;;;20.50;46.80;;;;;;4973252;28;20109;-64
2021/04/22 08:47:21;;;;;;;12.60;5.13;;;20.50;47.90;;;;;;4972509;28;20046;-63
2021/04/22 08:49:49;;;;;;;23.38;5.95;;;20.50;47.50;;;;;;4972679;28;20105;-65
2021/04/22 08:52:16;;;;;;;19.13;4.55;;;20.50;49.50;;;;;;4972408;28;20027;-63
2021/04/22 08:54:44;;;;;;;16.08;3.97;;;20.40;49.30;;;;;;4972714;28;20038;-63
2021/04/22 08:57:11;;;;;;;15.43;3.55;;;20.40;49.40;;;;;;4973640;28;20022;-63
2021/04/22 08:59:39;;;;;;;10.85;4.10;;;20.40;50.90;;;;;;4956127;28;20039;-65
2021/04/22 09:02:07;;;;;;;13.82;4.32;;;20.50;51.00;;;;;;4973000;28;20367;-65
2021/04/22 09:04:36;;;;;;;19.73;3.63;;;20.40;53.20;;;;;;4972883;28;20027;-62
2021/04/22 09:07:04;;;;;;;11.45;3.70;;;20.50;53.70;;;;;;4972746;28;20097;-62
2021/04/22 09:09:32;;;;;;;9.05;3.05;;;20.50;52.00;;;;;;4972190;28;20027;-61
2021/04/22 09:11:59;;;;;;;19.10;3.47;;;20.50;53.00;;;;;;4973160;28;20023;-63
2021/04/22 09:14:27;;;;;;;6.93;2.97;;;20.40;52.90;;;;;;4972555;28;20177;-61
2021/04/22 09:16:54;;;;;;;7.40;2.67;;;20.40;53.00;;;;;;4974374;28;20034;-62
2021/04/22 09:19:27;;;;;;;9.68;2.65;;;20.40;51.70;;;;;;4975122;28;20053;-61
2021/04/22 09:21:59;;;;;;;9.82;2.80;;;20.40;52.20;;;;;;4975906;28;20042;-60
2021/04/22 09:24:28;;;;;;;9.43;2.53;;;20.40;52.40;;;;;;4975809;28;20033;-62
2021/04/22 09:27:04;;;;;;;12.00;3.42;;;20.40;52.40;;;;;;4974944;28;20038;-62
2021/04/22 09:29:44;;;;;;;9.73;2.47;;;20.30;53.10;;;;;;4975309;28;20113;-61
2021/04/22 09:32:16;;;;;;;20.50;3.00;;;20.30;53.30;;;;;;4970774;28;20069;-63
2021/04/22 09:35:07;;;;;;;16.00;3.50;;;20.30;54.90;;;;;;4959267;28;20105;-58
2021/04/22 09:37:37;;;;;;;21.75;4.00;;;20.40;56.60;;;;;;4956417;29;20023;-61
2021/04/22 09:40:17;;;;;;;11.50;2.83;;;20.40;54.10;;;;;;4956179;29;20047;-61
2021/04/22 09:42:46;;;;;;;16.20;3.13;;;20.30;53.20;;;;;;4956972;29;20978;-58
2021/04/22 09:45:17;;;;;;;20.13;9.48;;;20.30;51.40;;;;;;4956221;29;20024;-57
2021/04/22 09:47:45;;;;;;;14.30;6.45;;;20.30;49.70;;;;;;4955834;29;20080;-60
2021/04/22 09:50:16;;;;;;;19.90;6.40;;;20.20;50.50;;;;;;4886942;28;2432715;-64
2021/04/22 09:52:48;;;;;;;18.70;12.52;;;20.20;50.60;;;;;;4976972;28;20477;-66
2021/04/22 09:55:20;;;;;;;29.27;9.35;;;20.20;50.50;;;;;;4976721;28;20033;-58
2021/04/22 09:57:48;;;;;;;19.15;13.27;;;20.20;51.50;;;;;;4976776;28;20027;-60
2021/04/22 10:00:28;;;;;;;29.95;20.63;;;20.20;50.70;;;;;;4976210;28;20512;-65
2021/04/22 10:02:58;;;;;;;27.50;13.63;;;20.10;50.90;;;;;;4976453;28;20026;-63
2021/04/22 10:05:34;;;;;;;20.48;11.00;;;20.20;52.60;;;;;;4958907;28;20031;-62
2021/04/22 10:08:12;;;;;;;33.72;26.90;;;20.10;51.60;;;;;;4976634;28;20034;-61
2021/04/22 10:11:02;;;;;;;24.40;21.80;;;20.10;50.50;;;;;;4976579;28;20482;-67
2021/04/22 10:13:42;;;;;;;24.83;18.70;;;20.10;51.30;;;;;;4976127;28;20109;-63
2021/04/22 10:16:10;;;;;;;16.25;13.55;;;20.10;53.60;;;;;;4976388;28;20453;-60
2021/04/22 10:18:43;;;;;;;23.50;17.35;;;20.10;53.00;;;;;;4976391;28;20448;-65
2021/04/22 10:21:16;;;;;;;18.73;11.88;;;20.10;55.00;;;;;;4976133;28;20098;-66
2021/04/22 10:23:43;;;;;;;21.88;10.32;;;20.10;52.70;;;;;;4976114;28;20386;-65
2021/04/22 10:26:22;;;;;;;13.40;12.00;;;20.10;53.30;;;;;;4975191;28;20113;-63
2021/04/22 10:28:49;;;;;;;28.75;15.10;;;20.00;51.90;;;;;;4975365;28;20571;-63
2021/04/22 10:31:17;;;;;;;18.85;10.60;;;20.00;54.30;;;;;;4975726;28;20119;-65
2021/04/22 10:33:45;;;;;;;14.88;10.95;;;20.00;53.00;;;;;;4976271;28;20038;-64
2021/04/22 10:36:14;;;;;;;11.30;9.68;;;20.00;53.40;;;;;;4976144;28;20472;-65
2021/04/22 10:38:41;;;;;;;24.38;10.75;;;20.00;55.00;;;;;;4975734;28;20035;-65
2021/04/22 10:41:09;;;;;;;13.68;8.38;;;20.00;55.30;;;;;;4975870;28;20118;-65
2021/04/22 10:43:37;;;;;;;10.50;6.18;;;19.90;54.20;;;;;;4973115;28;20034;-66
2021/04/22 10:46:05;;;;;;;8.32;5.70;;;19.90;52.10;;;;;;4975932;28;20031;-66
2021/04/22 10:48:33;;;;;;;9.18;5.32;;;19.80;52.40;;;;;;4964564;28;20046;-66
2021/04/22 10:51:01;;;;;;;16.60;5.32;;;19.80;52.00;;;;;;4970502;28;20035;-70
2021/04/22 10:53:29;;;;;;;22.52;5.28;;;19.70;50.70;;;;;;4972237;28;20035;-63
2021/04/22 10:55:57;;;;;;;9.43;4.15;;;19.70;51.30;;;;;;4970317;28;20027;-61
2021/04/22 10:58:27;;;;;;;6.90;4.00;;;19.70;50.70;;;;;;4968948;28;20050;-66
2021/04/22 11:01:03;;;;;;;13.32;4.13;;;19.70;50.50;;;;;;4972679;28;20038;-60
2021/04/22 11:03:42;;;;;;;10.13;4.20;;;19.60;50.80;;;;;;4972683;28;20130;-61
2021/04/22 11:06:11;;;;;;;9.80;4.40;;;19.60;51.50;;;;;;4972018;28;20034;-63
2021/04/22 11:08:42;;;;;;;14.60;4.40;;;19.60;51.70;;;;;;4969583;28;20031;-65
2021/04/22 11:11:25;;;;;;;10.55;4.28;;;19.60;51.80;;;;;;4973870;28;20030;-62
2021/04/22 11:14:08;;;;;;;7.55;3.75;;;19.60;51.90;;;;;;4973431;28;20034;-61
2021/04/22 11:16:38;;;;;;;8.88;4.30;;;19.60;51.90;;;;;;4972425;28;20515;-67
2021/04/22 11:19:17;;;;;;;12.13;4.28;;;19.60;52.00;;;;;;4968472;28;20034;-64
2021/04/22 11:22:01;;;;;;;10.38;3.72;;;19.60;52.20;;;;;;4973765;28;20042;-63
2021/04/22 11:24:29;;;;;;;13.77;3.75;;;19.60;52.30;;;;;;4973374;28;20031;-64
2021/04/22 11:27:10;;;;;;;8.95;3.40;;;19.60;52.30;;;;;;4975061;28;20156;-66
2021/04/22 11:29:42;;;;;;;6.95;3.72;;;19.60;52.30;;;;;;4968907;28;20035;-68
2021/04/22 11:32:34;;;;;;;7.72;3.20;;;19.50;52.40;;;;;;4973426;28;20086;-67
2021/04/22 11:35:15;;;;;;;4.28;3.42;;;19.50;52.60;;;;;;4973005;28;20031;-62
2021/04/22 11:37:51;;;;;;;7.22;3.60;;;19.50;52.60;;;;;;4973433;28;20027;-66
2021/04/22 11:40:25;;;;;;;7.47;3.33;;;19.50;52.60;;;;;;4967093;28;20039;-67
2021/04/22 11:42:56;;;;;;;8.52;3.33;;;19.50;52.80;;;;;;4973530;28;20102;-67
2021/04/22 11:45:31;;;;;;;8.95;3.20;;;19.50;52.80;;;;;;4973381;28;20046;-67
2021/04/22 11:48:02;;;;;;;7.63;3.03;;;19.50;52.80;;;;;;4972148;28;20026;-69
2021/04/22 11:50:45;;;;;;;5.70;2.90;;;19.50;53.00;;;;;;4970339;28;20082;-66
2021/04/22 11:53:14;;;;;;;10.50;3.22;;;19.50;53.10;;;;;;4973520;28;20023;-61
2021/04/22 11:56:02;;;;;;;5.95;2.88;;;19.40;53.00;;;;;;4972920;28;20023;-63
2021/04/22 11:58:30;;;;;;;8.50;2.92;;;19.40;52.90;;;;;;4968293;28;20045;-63
2021/04/22 12:01:01;;;;;;;5.32;3.38;;;19.40;53.00;;;;;;4973263;28;20035;-63
2021/04/22 12:03:36;;;;;;;5.70;3.53;;;19.40;53.10;;;;;;4973640;28;20442;-63
2021/04/22 12:06:07;;;;;;;6.80;3.05;;;19.40;52.90;;;;;;4973439;28;20045;-59
2021/04/22 12:08:36;;;;;;;5.43;2.85;;;19.40;53.30;;;;;;4966589;28;20046;-61
2021/04/22 12:11:06;;;;;;;7.53;3.00;;;19.30;53.30;;;;;;4972780;28;20058;-59
2021/04/22 12:13:35;;;;;;;6.90;3.10;;;19.30;53.30;;;;;;4972763;28;20026;-64
2021/04/22 12:16:08;;;;;;;4.88;3.13;;;19.30;53.50;;;;;;4973744;28;20031;-62
2021/04/22 12:18:40;;;;;;;9.23;2.70;;;19.30;53.40;;;;;;4967589;28;20070;-63
2021/04/22 12:21:39;;;;;;;9.77;2.78;;;19.30;53.70;;;;;;4972463;28;20048;-60
2021/04/22 12:24:08;;;;;;;4.22;2.50;;;19.20;53.80;;;;;;4963355;28;20039;-60
2021/04/22 12:26:36;;;;;;;10.50;3.10;;;19.20;53.80;;;;;;4956764;28;20026;-63
2021/04/22 12:29:14;;;;;;;5.55;2.70;;;19.20;53.70;;;;;;4966697;28;20033;-58
2021/04/22 12:31:50;;;;;;;6.55;3.00;;;19.20;53.80;;;;;;4972508;28;20050;-60
2021/04/22 12:34:22;;;;;;;5.97;3.00;;;19.20;53.80;;;;;;4972816;28;20039;-61
2021/04/22 12:37:09;;;;;;;8.23;2.90;;;19.20;54.00;;;;;;4971891;28;20023;-58
2021/04/22 12:39:43;;;;;;;5.28;2.85;;;19.20;54.00;;;;;;4964849;28;20046;-62
2021/04/22 12:42:31;;;;;;;5.32;2.90;;;19.20;54.10;;;;;;4972663;28;20027;-65
2021/04/22 12:45:03;;;;;;;3.47;2.90;;;19.20;54.00;;;;;;4955403;28;20054;-62
2021/04/22 12:47:44;;;;;;;6.95;2.78;;;19.20;53.90;;;;;;4972365;28;20105;-62
2021/04/22 12:50:33;;;;;;;4.57;2.97;;;19.20;54.10;;;;;;4965901;28;20592;-63
2021/04/22 12:53:05;;;;;;;5.00;2.80;;;19.20;54.00;;;;;;4973017;28;20421;-67